Time;durP1;ratioP1;P1;durP2;ratioP2;P2;SDS_P1;SDS_P2;PMS_P1;PMS_P2;Temp;Humidity;BMP_temperature;BMP_pressure;BME280_temperature;BME280_humidity;BME280_pressure;Samples;Min_cycle;Max_cycle;Signal;HPM_P1;HPM_P2
2023/10/27 00:02:11;;;;;;;3.65;0.82;;;;;;;4.65;70.79;100344.13;6118426;23;20022;-75
2023/10/27 00:04:38;;;;;;;2.80;0.65;;;;;;;4.65;70.96;100346.72;6119367;23;20022;-74
2023/10/27 00:07:05;;;;;;;3.15;0.80;;;;;;;4.65;70.71;100364.81;6118663;23;20022;-75
2023/10/27 00:09:35;;;;;;;2.92;0.70;;;;;;;4.64;70.89;100355.34;6122163;23;20026;-75
2023/10/27 00:12:04;;;;;;;3.05;1.10;;;;;;;4.62;70.86;100354.47;6114979;23;20101;-74
2023/10/27 00:14:31;;;;;;;2.17;0.60;;;;;;;4.63;70.97;100343.25;6121082;23;20342;-74
2023/10/27 00:16:58;;;;;;;1.52;0.60;;;;;;;4.63;70.61;100342.41;6116773;23;20018;-75
2023/10/27 00:19:25;;;;;;;1.23;0.70;;;;;;;4.61;71.02;100342.41;6120877;23;20041;-74
2023/10/27 00:21:52;;;;;;;2.95;0.70;;;;;;;4.61;70.88;100345.00;6119761;23;20410;-74
2023/10/27 00:24:19;;;;;;;3.22;1.20;;;;;;;4.61;70.90;100350.19;6119771;23;20105;-74
2023/10/27 00:26:46;;;;;;;2.50;0.77;;;;;;;4.55;71.06;100347.56;6116425;23;20033;-75
2023/10/27 00:29:14;;;;;;;1.48;1.25;;;;;;;4.60;71.06;100352.75;6120761;23;20026;-74
2023/10/27 00:31:41;;;;;;;1.88;0.90;;;;;;;4.58;71.03;100355.34;6117453;23;20473;-73
2023/10/27 00:34:08;;;;;;;1.05;0.70;;;;;;;4.59;71.10;100357.06;6119881;23;20353;-73
2023/10/27 00:36:35;;;;;;;2.72;0.70;;;;;;;4.58;71.18;100355.34;6119175;23;20446;-73
2023/10/27 00:39:02;;;;;;;1.70;0.70;;;;;;;4.58;71.05;100355.34;6121202;23;20492;-73
2023/10/27 00:41:30;;;;;;;2.50;0.70;;;;;;;4.53;71.09;100343.28;6120166;23;20022;-80
2023/10/27 00:43:56;;;;;;;4.82;1.38;;;;;;;4.57;71.20;100347.59;6124594;23;20045;-80
2023/10/27 00:46:25;;;;;;;2.10;0.75;;;;;;;4.57;71.22;100345.00;6123648;23;20024;-80
2023/10/27 00:48:52;;;;;;;1.88;0.60;;;;;;;4.56;71.33;100345.88;6121618;23;20021;-80
2023/10/27 00:51:19;;;;;;;4.32;0.82;;;;;;;4.55;71.48;100346.72;6125020;23;20345;-80
2023/10/27 00:53:46;;;;;;;5.07;0.80;;;;;;;4.54;71.43;100343.28;6124255;23;20022;-80
2023/10/27 00:56:14;;;;;;;0.82;0.57;;;;;;;4.52;71.46;100339.81;6125480;23;20021;-80
2023/10/27 00:58:40;;;;;;;3.40;0.70;;;;;;;4.54;71.59;100343.28;6122777;23;20473;-79
2023/10/27 01:01:09;;;;;;;2.45;0.90;;;;;;;4.54;71.53;100340.69;6123486;23;20051;-79
2023/10/27 01:03:37;;;;;;;3.45;0.70;;;;;;;4.53;71.70;100341.56;6122855;23;20018;-80
2023/10/27 01:06:05;;;;;;;2.28;0.85;;;;;;;4.53;71.68;100343.28;6123384;23;20019;-80
2023/10/27 01:08:31;;;;;;;1.05;0.60;;;;;;;4.50;71.65;100337.25;6123052;23;20024;-79
2023/10/27 01:10:58;;;;;;;2.92;0.80;;;;;;;4.50;71.55;100338.97;6123459;23;20022;-83
2023/10/27 01:13:25;;;;;;;1.50;0.50;;;;;;;4.49;71.54;100338.09;6122384;23;20438;-79
2023/10/27 01:15:52;;;;;;;2.53;0.95;;;;;;;4.48;71.74;100330.34;6124123;23;20469;-79
2023/10/27 01:18:19;;;;;;;1.58;1.10;;;;;;;4.46;71.70;100335.50;6122032;23;20028;-79
2023/10/27 01:20:47;;;;;;;2.58;0.90;;;;;;;4.47;71.82;100337.25;6124800;23;20036;-79
2023/10/27 01:23:16;;;;;;;2.20;0.90;;;;;;;4.47;71.92;100331.22;6121858;23;20346;-79
2023/10/27 01:25:43;;;;;;;1.80;0.60;;;;;;;4.46;71.82;100329.47;6122338;23;20024;-79
2023/10/27 01:28:10;;;;;;;1.15;0.80;;;;;;;4.46;71.80;100324.31;6122273;23;20462;-79
2023/10/27 01:30:37;;;;;;;1.35;0.90;;;;;;;4.46;71.86;100332.94;6123013;23;20028;-79
2023/10/27 01:33:04;;;;;;;3.85;0.80;;;;;;;4.46;71.88;100326.91;6122482;23;20024;-79
2023/10/27 01:35:30;;;;;;;1.75;0.73;;;;;;;4.47;71.90;100331.22;6124844;23;20480;-80
2023/10/27 01:37:57;;;;;;;1.33;0.80;;;;;;;4.46;72.00;100319.13;6123201;23;20748;-79
2023/10/27 01:40:26;;;;;;;1.73;0.88;;;;;;;4.46;71.98;100316.56;6125227;23;20028;-81
2023/10/27 01:42:53;;;;;;;2.00;1.00;;;;;;;4.46;72.07;100324.31;6117497;23;20093;-74
2023/10/27 01:45:19;;;;;;;3.30;0.80;;;;;;;4.46;71.96;100329.47;6118218;23;20024;-75
2023/10/27 01:47:46;;;;;;;2.45;0.57;;;;;;;4.46;72.00;100321.72;6117832;23;20018;-74
2023/10/27 01:50:13;;;;;;;3.25;0.80;;;;;;;4.47;71.98;100321.75;6118491;23;20062;-75
2023/10/27 01:52:41;;;;;;;2.85;0.60;;;;;;;4.45;72.02;100323.44;6124120;23;20018;-79
2023/10/27 01:55:09;;;;;;;2.47;1.00;;;;;;;4.45;72.06;100320.00;6123809;23;20745;-79
2023/10/27 01:57:37;;;;;;;1.48;0.90;;;;;;;4.46;72.03;100313.97;6122578;23;20026;-80
2023/10/27 02:00:04;;;;;;;1.10;0.57;;;;;;;4.45;71.82;100312.25;6124676;23;20339;-80
2023/10/27 02:02:31;;;;;;;5.60;1.10;;;;;;;4.45;71.96;100309.66;6124485;23;20612;-80
2023/10/27 02:04:58;;;;;;;3.25;0.52;;;;;;;4.45;71.90;100302.75;6124270;23;20024;-80
2023/10/27 02:07:25;;;;;;;6.47;0.60;;;;;;;4.46;71.78;100306.22;6124113;23;20018;-81
2023/10/27 02:09:52;;;;;;;5.53;1.15;;;;;;;4.45;72.09;100301.91;6123670;23;20022;-80
2023/10/27 02:12:19;;;;;;;1.92;1.02;;;;;;;4.43;71.82;100299.31;6124429;23;20493;-80
2023/10/27 02:14:47;;;;;;;2.38;0.75;;;;;;;4.43;71.79;100303.63;6124369;23;20018;-79
2023/10/27 02:17:14;;;;;;;1.42;1.00;;;;;;;4.44;71.82;100303.63;6123969;23;20468;-80
2023/10/27 02:19:41;;;;;;;1.15;0.75;;;;;;;4.43;71.72;100288.09;6124925;23;20545;-80
2023/10/27 02:22:08;;;;;;;0.77;0.60;;;;;;;4.42;71.75;100296.75;6123180;23;20021;-78
2023/10/27 02:24:34;;;;;;;2.78;0.73;;;;;;;4.41;71.97;100287.25;6125541;23;20022;-80
2023/10/27 02:27:01;;;;;;;3.63;0.82;;;;;;;4.41;72.09;100289.81;6121295;23;20018;-80
2023/10/27 02:29:28;;;;;;;2.38;0.63;;;;;;;4.43;71.97;100293.28;6122619;23;20018;-80
2023/10/27 02:31:56;;;;;;;3.72;0.80;;;;;;;4.43;72.16;100285.53;6124038;23;20022;-79
2023/10/27 02:34:23;;;;;;;1.13;0.70;;;;;;;4.43;72.18;100291.56;6124071;23;20017;-80
2023/10/27 02:36:50;;;;;;;1.85;0.60;;;;;;;4.41;72.11;100282.97;6124141;23;20034;-79
2023/10/27 02:39:17;;;;;;;3.65;1.48;;;;;;;4.42;72.21;100286.41;6122276;23;20019;-80
2023/10/27 02:41:44;;;;;;;2.97;0.95;;;;;;;4.41;72.46;100282.97;6124423;23;20097;-79
2023/10/27 02:44:11;;;;;;;2.03;0.70;;;;;;;4.43;72.26;100283.78;6123205;23;20040;-79
2023/10/27 02:46:38;;;;;;;0.43;0.25;;;;;;;4.43;72.14;100286.38;6125762;23;20307;-80
2023/10/27 02:49:06;;;;;;;2.20;1.05;;;;;;;4.42;72.13;100282.09;6124781;23;20018;-79
2023/10/27 02:51:33;;;;;;;2.78;0.90;;;;;;;4.42;72.39;100282.09;6123289;23;20032;-73
2023/10/27 02:54:01;;;;;;;2.83;0.70;;;;;;;4.40;72.41;100277.78;6117721;23;20018;-73
2023/10/27 02:56:28;;;;;;;1.80;0.90;;;;;;;4.39;72.32;100276.06;6117683;23;20022;-73
2023/10/27 02:58:55;;;;;;;1.95;0.90;;;;;;;4.39;72.63;100265.72;6120498;23;20029;-73
2023/10/27 03:01:22;;;;;;;3.97;0.75;;;;;;;4.38;72.45;100261.38;6119654;23;20021;-75
2023/10/27 03:03:49;;;;;;;3.55;0.80;;;;;;;4.39;72.48;100257.97;6121179;23;20026;-76
2023/10/27 03:06:17;;;;;;;1.10;0.90;;;;;;;4.37;72.68;100268.28;6120798;23;20100;-75
2023/10/27 03:08:44;;;;;;;1.38;0.80;;;;;;;4.39;72.83;100260.53;6119958;23;20018;-75
2023/10/27 03:11:11;;;;;;;3.72;0.95;;;;;;;4.39;72.67;100257.97;6120545;23;20030;-75
2023/10/27 03:13:38;;;;;;;3.72;0.80;;;;;;;4.39;72.80;100265.72;6119723;23;20022;-76
2023/10/27 03:16:05;;;;;;;3.42;1.08;;;;;;;4.37;72.78;100263.13;6119914;23;20025;-75
2023/10/27 03:18:32;;;;;;;4.78;1.10;;;;;;;4.37;72.71;100263.13;6119918;23;20022;-75
2023/10/27 03:21:01;;;;;;;2.05;0.80;;;;;;;4.33;73.02;100256.25;6120671;23;20054;-75
2023/10/27 03:23:29;;;;;;;2.65;1.00;;;;;;;4.37;72.67;100257.94;6120299;23;20017;-74
2023/10/27 03:25:58;;;;;;;1.80;1.05;;;;;;;4.36;72.49;100257.97;6119988;23;20022;-75
2023/10/27 03:28:25;;;;;;;1.52;1.13;;;;;;;4.36;73.14;100258.81;6119298;23;20026;-75
2023/10/27 03:30:53;;;;;;;2.75;0.93;;;;;;;4.37;72.83;100267.44;6120985;23;20026;-75
2023/10/27 03:33:19;;;;;;;1.30;0.90;;;;;;;4.37;72.99;100251.91;6120478;23;20481;-75
2023/10/27 03:35:47;;;;;;;1.10;1.00;;;;;;;4.37;72.85;100254.50;6120334;23;20352;-76
2023/10/27 03:38:14;;;;;;;5.57;1.15;;;;;;;4.37;72.96;100257.09;6120346;23;20022;-75
2023/10/27 03:40:43;;;;;;;6.15;0.98;;;;;;;4.38;73.08;100258.81;6120530;23;20032;-75
2023/10/27 03:43:10;;;;;;;0.82;0.77;;;;;;;4.37;73.16;100251.91;6117835;23;20026;-75
2023/10/27 03:45:37;;;;;;;4.70;0.80;;;;;;;4.36;73.14;100250.22;6122527;23;20024;-75
2023/10/27 03:48:04;;;;;;;2.03;0.80;;;;;;;4.36;73.29;100247.63;6121454;23;20457;-76
2023/10/27 03:50:30;;;;;;;2.00;1.00;;;;;;;4.36;73.26;100252.78;6122868;23;20026;-76
2023/10/27 03:52:57;;;;;;;3.25;0.80;;;;;;;4.35;73.13;100251.91;6121812;23;20018;-76
2023/10/27 03:55:24;;;;;;;1.52;0.90;;;;;;;4.36;73.14;100250.22;6123358;23;20018;-75
2023/10/27 03:57:55;;;;;;;3.20;1.08;;;;;;;4.36;73.38;100245.03;6122652;23;20022;-76
2023/10/27 04:00:23;;;;;;;2.50;0.80;;;;;;;4.35;73.16;100243.28;6121424;23;20030;-75
2023/10/27 04:02:49;;;;;;;0.80;0.50;;;;;;;4.35;73.18;100253.63;6119014;23;20540;-73
2023/10/27 04:05:16;;;;;;;0.82;0.77;;;;;;;4.34;73.27;100251.94;6121122;23;20696;-74
2023/10/27 04:07:43;;;;;;;1.42;1.00;;;;;;;4.32;73.33;100240.72;6121634;23;20026;-74
2023/10/27 04:10:10;;;;;;;5.38;2.53;;;;;;;4.32;73.04;100248.47;6119378;23;20021;-73
2023/10/27 04:12:37;;;;;;;5.32;1.02;;;;;;;4.33;73.34;100242.47;6122116;23;20037;-74
2023/10/27 04:15:08;;;;;;;1.40;0.70;;;;;;;4.32;73.26;100238.13;6120547;23;20070;-74
2023/10/27 04:17:35;;;;;;;11.68;1.27;;;;;;;4.32;73.30;100245.88;6122582;23;20022;-74
2023/10/27 04:20:03;;;;;;;2.25;0.63;;;;;;;4.31;73.35;100241.59;6117932;23;20022;-74
2023/10/27 04:22:30;;;;;;;3.80;0.90;;;;;;;4.34;73.40;100246.75;6122632;23;20097;-74
2023/10/27 04:24:57;;;;;;;5.10;1.40;;;;;;;4.33;73.31;100250.22;6119530;23;20022;-73
2023/10/27 04:27:25;;;;;;;1.55;0.70;;;;;;;4.33;73.48;100239.88;6121117;23;20018;-73
2023/10/27 04:29:52;;;;;;;1.00;0.70;;;;;;;4.33;73.50;100235.56;6119497;23;20026;-74
2023/10/27 04:32:20;;;;;;;1.38;0.75;;;;;;;4.34;73.45;100237.28;6118996;23;20034;-74
2023/10/27 04:34:47;;;;;;;0.95;0.90;;;;;;;4.28;73.43;100226.94;6120118;23;20054;-74
2023/10/27 04:37:14;;;;;;;3.75;0.95;;;;;;;4.32;73.54;100238.97;6120339;23;20065;-74
2023/10/27 04:39:41;;;;;;;2.75;0.60;;;;;;;4.31;73.46;100236.41;6121147;23;20529;-74
2023/10/27 04:42:08;;;;;;;3.05;0.90;;;;;;;4.29;73.46;100231.25;6120523;23;20096;-73
2023/10/27 04:44:35;;;;;;;1.75;1.20;;;;;;;4.31;73.38;100228.66;6120799;23;20018;-73
2023/10/27 04:47:02;;;;;;;3.05;0.77;;;;;;;4.29;73.59;100228.66;6119827;23;20022;-74
2023/10/27 04:49:30;;;;;;;5.45;0.90;;;;;;;4.28;73.62;100225.22;6121244;23;20022;-74
2023/10/27 04:51:57;;;;;;;1.02;0.85;;;;;;;4.29;73.61;100224.34;6120785;23;20476;-74
2023/10/27 04:54:24;;;;;;;1.45;0.80;;;;;;;4.29;73.56;100224.34;6120633;23;20704;-73
2023/10/27 04:56:51;;;;;;;1.23;0.95;;;;;;;4.29;73.67;100228.66;6120694;23;20022;-75
2023/10/27 04:59:18;;;;;;;3.30;1.20;;;;;;;4.27;73.62;100223.50;6121025;23;20323;-74
2023/10/27 05:01:45;;;;;;;2.58;1.10;;;;;;;4.27;73.65;100226.09;6121782;23;20513;-75
2023/10/27 05:04:12;;;;;;;2.05;0.88;;;;;;;4.26;73.71;100226.94;6119134;23;20453;-74
2023/10/27 05:06:40;;;;;;;1.05;0.65;;;;;;;4.25;73.63;100227.81;6120796;23;20458;-75
2023/10/27 05:09:07;;;;;;;1.83;0.63;;;;;;;4.25;73.58;100227.81;6120154;23;20018;-74
2023/10/27 05:11:35;;;;;;;2.97;1.10;;;;;;;4.24;73.86;100226.09;6120485;23;20068;-72
2023/10/27 05:14:02;;;;;;;1.42;1.00;;;;;;;4.24;73.83;100231.25;6119212;23;20022;-73
2023/10/27 05:16:29;;;;;;;2.55;1.10;;;;;;;4.24;73.82;100226.09;6118378;23;20026;-72
2023/10/27 05:18:56;;;;;;;5.05;0.98;;;;;;;4.25;73.85;100235.56;6119512;23;20018;-72
2023/10/27 05:21:26;;;;;;;1.80;0.85;;;;;;;4.26;73.84;100232.09;6119150;23;20060;-77
2023/10/27 05:23:56;;;;;;;2.03;0.73;;;;;;;4.26;74.00;100223.50;6123361;23;20394;-78
2023/10/27 05:26:23;;;;;;;3.03;1.48;;;;;;;4.26;74.05;100226.94;6123476;23;20022;-77
2023/10/27 05:28:50;;;;;;;4.53;0.90;;;;;;;4.27;73.97;100226.09;6119880;23;20344;-77
2023/10/27 05:31:17;;;;;;;1.33;0.60;;;;;;;4.26;73.94;100226.94;6122231;23;20542;-77
2023/10/27 05:33:44;;;;;;;4.45;0.70;;;;;;;4.25;74.01;100227.81;6124682;23;20028;-77
2023/10/27 05:36:12;;;;;;;1.30;0.70;;;;;;;4.26;74.00;100220.91;6124634;23;20092;-77
2023/10/27 05:38:39;;;;;;;0.90;0.80;;;;;;;4.24;73.76;100228.69;6123246;23;20414;-76
2023/10/27 05:41:07;;;;;;;3.55;0.98;;;;;;;4.25;74.09;100230.38;6123129;23;20337;-77
2023/10/27 05:43:34;;;;;;;1.20;0.68;;;;;;;4.24;74.11;100214.88;6124418;23;20093;-77
2023/10/27 05:46:01;;;;;;;2.75;1.08;;;;;;;4.26;74.05;100226.06;6123240;23;20017;-76
2023/10/27 05:48:28;;;;;;;2.85;1.17;;;;;;;4.25;74.39;100227.81;6124567;23;20097;-76
2023/10/27 05:50:55;;;;;;;1.92;1.00;;;;;;;4.27;74.03;100225.22;6123991;23;20018;-77
2023/10/27 05:53:23;;;;;;;1.40;0.77;;;;;;;4.28;74.03;100222.63;6124802;23;20021;-77
2023/10/27 05:55:50;;;;;;;4.43;0.85;;;;;;;4.28;74.05;100220.03;6121942;23;20022;-77
2023/10/27 05:58:19;;;;;;;4.05;1.20;;;;;;;4.28;74.24;100220.03;6123633;23;20022;-77
2023/10/27 06:00:46;;;;;;;1.75;0.98;;;;;;;4.27;74.15;100226.09;6122626;23;20022;-78
2023/10/27 06:03:13;;;;;;;2.25;0.90;;;;;;;4.27;74.12;100220.91;6123419;23;20086;-77
2023/10/27 06:05:40;;;;;;;1.83;0.95;;;;;;;4.24;74.55;100226.09;6124047;23;20024;-78
2023/10/27 06:08:07;;;;;;;5.15;4.63;;;;;;;4.28;74.35;100230.38;6125193;23;20093;-80
2023/10/27 06:10:34;;;;;;;1.52;1.42;;;;;;;4.29;74.17;100232.09;6124900;23;20022;-80
2023/10/27 06:13:01;;;;;;;8.70;3.50;;;;;;;4.29;74.34;100226.91;6125437;23;20028;-81
2023/10/27 06:15:29;;;;;;;1.35;0.70;;;;;;;4.29;74.38;100234.69;6124436;23;20093;-81
2023/10/27 06:17:56;;;;;;;1.83;0.85;;;;;;;4.28;74.39;100232.97;6125184;23;20483;-79
2023/10/27 06:20:23;;;;;;;3.42;0.90;;;;;;;4.28;74.52;100232.97;6123683;23;20018;-81
2023/10/27 06:22:50;;;;;;;12.35;1.10;;;;;;;4.28;74.34;100232.97;6124416;23;20022;-77
2023/10/27 06:25:18;;;;;;;3.58;1.00;;;;;;;4.28;74.38;100224.34;6123037;23;20028;-78
2023/10/27 06:27:45;;;;;;;1.05;0.90;;;;;;;4.22;74.29;100214.03;6123702;23;20022;-87
2023/10/27 06:30:12;;;;;;;1.95;0.77;;;;;;;4.27;74.45;100220.91;6123834;23;20465;-83
2023/10/27 06:32:40;;;;;;;2.25;0.70;;;;;;;4.28;74.51;100225.22;6118988;23;20022;-76
2023/10/27 06:35:08;;;;;;;1.25;0.90;;;;;;;4.25;74.52;100227.81;6119396;23;20024;-76
2023/10/27 06:37:35;;;;;;;4.13;0.85;;;;;;;4.27;74.53;100231.25;6121021;23;20362;-75
2023/10/27 06:40:02;;;;;;;1.42;1.00;;;;;;;4.26;74.17;100234.69;6119438;23;20044;-76
2023/10/27 06:42:28;;;;;;;2.72;0.93;;;;;;;4.26;74.28;100226.06;6120443;23;20029;-75
2023/10/27 06:44:55;;;;;;;1.42;0.70;;;;;;;4.24;74.38;100223.50;6120646;23;20032;-75
2023/10/27 06:47:22;;;;;;;2.13;1.35;;;;;;;4.23;74.35;100224.34;6120690;23;20028;-75
2023/10/27 06:49:51;;;;;;;2.45;1.15;;;;;;;4.25;74.45;100229.53;6118425;23;20607;-79
2023/10/27 06:52:18;;;;;;;1.20;0.70;;;;;;;4.25;74.67;100227.81;6125311;23;20028;-78
2023/10/27 06:54:46;;;;;;;1.92;1.00;;;;;;;4.24;74.42;100233.84;6123096;23;20028;-79
2023/10/27 06:57:12;;;;;;;3.63;0.70;;;;;;;4.24;74.44;100233.84;6122504;23;20401;-78
2023/10/27 06:59:39;;;;;;;1.50;0.70;;;;;;;4.24;74.57;100230.38;6120007;23;20026;-76
2023/10/27 07:02:06;;;;;;;3.20;0.70;;;;;;;4.15;74.64;100220.91;6120075;23;20462;-76
2023/10/27 07:04:32;;;;;;;3.17;0.98;;;;;;;4.22;74.57;100232.13;6118984;23;20050;-76
2023/10/27 07:07:03;;;;;;;0.73;0.55;;;;;;;4.25;74.54;100238.16;6113531;23;20228;-75
2023/10/27 07:09:30;;;;;;;1.73;0.90;;;;;;;4.24;74.63;100241.59;6117713;23;20394;-75
2023/10/27 07:11:59;;;;;;;4.75;1.35;;;;;;;4.25;75.03;100243.31;6117863;23;20353;-74
2023/10/27 07:14:26;;;;;;;0.60;0.60;;;;;;;4.24;74.64;100241.59;6114148;23;20029;-76
2023/10/27 07:16:54;;;;;;;1.00;0.77;;;;;;;4.24;74.79;100245.88;6117913;23;20018;-77
2023/10/27 07:19:21;;;;;;;2.88;0.80;;;;;;;4.23;74.73;100245.03;6104317;23;20122;-75
2023/10/27 07:21:48;;;;;;;1.73;0.60;;;;;;;4.23;75.02;100246.75;6118439;23;20022;-75
2023/10/27 07:24:17;;;;;;;1.60;0.90;;;;;;;4.23;74.95;100234.69;6120972;23;20018;-74
2023/10/27 07:26:44;;;;;;;1.23;0.60;;;;;;;4.24;74.93;100239.03;6114059;23;20018;-74
2023/10/27 07:29:11;;;;;;;2.35;1.20;;;;;;;4.24;74.95;100241.59;6115017;23;20028;-77
2023/10/27 07:31:38;;;;;;;3.20;0.70;;;;;;;4.23;75.04;100234.69;6115632;23;20032;-75
2023/10/27 07:34:05;;;;;;;1.08;0.60;;;;;;;4.25;74.86;100239.88;6116689;23;20390;-75
2023/10/27 07:36:32;;;;;;;1.42;0.60;;;;;;;4.26;74.87;100249.34;6117100;23;20022;-75
2023/10/27 07:38:59;;;;;;;1.13;0.60;;;;;;;4.26;74.83;100239.84;6118813;23;20022;-76
2023/10/27 07:41:26;;;;;;;3.33;1.52;;;;;;;4.27;74.62;100244.19;6117972;23;20022;-79
2023/10/27 07:43:53;;;;;;;6.85;1.65;;;;;;;4.27;74.88;100246.78;6122699;23;20024;-81
2023/10/27 07:46:20;;;;;;;4.85;1.77;;;;;;;4.27;74.69;100246.78;6120955;23;20036;-79
2023/10/27 07:48:47;;;;;;;17.48;2.72;;;;;;;4.27;75.02;100236.44;6122781;23;20022;-80
2023/10/27 07:51:15;;;;;;;2.15;0.70;;;;;;;4.28;75.04;100243.31;6119344;23;20029;-80
2023/10/27 07:53:42;;;;;;;1.20;0.80;;;;;;;4.28;75.02;100248.47;6122773;23;20018;-80
2023/10/27 07:56:09;;;;;;;2.60;1.13;;;;;;;4.29;74.98;100250.19;6121263;23;20040;-80
2023/10/27 07:58:38;;;;;;;3.33;0.70;;;;;;;4.29;75.03;100244.16;6125429;23;20093;-80
2023/10/27 08:01:05;;;;;;;3.00;0.80;;;;;;;4.25;74.98;100237.28;6123863;23;20331;-80
2023/10/27 08:03:33;;;;;;;1.17;0.75;;;;;;;4.26;75.03;100245.03;6124242;23;20018;-79
2023/10/27 08:06:01;;;;;;;2.63;1.27;;;;;;;4.27;75.01;100257.13;6119877;23;20030;-80
2023/10/27 08:08:28;;;;;;;1.08;0.50;;;;;;;4.28;75.38;100257.97;6121779;23;20078;-80
2023/10/27 08:10:55;;;;;;;2.42;0.50;;;;;;;4.22;75.11;100248.50;6119474;23;20028;-80
2023/10/27 08:13:22;;;;;;;0.50;0.50;;;;;;;4.26;74.99;100260.53;6125070;23;20097;-80
2023/10/27 08:15:51;;;;;;;1.38;0.50;;;;;;;4.28;75.38;100252.78;6122231;23;20025;-80
2023/10/27 08:18:18;;;;;;;2.63;0.70;;;;;;;4.27;75.29;100254.53;6126013;23;20024;-81
2023/10/27 08:20:45;;;;;;;0.70;0.50;;;;;;;4.28;75.11;100256.25;6121882;23;20102;-80
2023/10/27 08:23:12;;;;;;;0.80;0.50;;;;;;;4.27;75.16;100251.94;6123021;23;20022;-79
2023/10/27 08:25:39;;;;;;;1.13;0.40;;;;;;;4.28;75.49;100258.81;6121799;23;20024;-82
2023/10/27 08:28:06;;;;;;;0.88;0.52;;;;;;;4.29;75.35;100255.38;6122519;23;20018;-81
2023/10/27 08:30:33;;;;;;;3.20;0.50;;;;;;;4.31;75.42;100245.03;6118311;23;20027;-80
2023/10/27 08:33:01;;;;;;;0.60;0.40;;;;;;;4.31;75.51;100252.78;6125146;23;20057;-81
2023/10/27 08:35:28;;;;;;;1.45;0.40;;;;;;;4.33;75.39;100263.16;6122680;23;20022;-80
2023/10/27 08:37:55;;;;;;;0.45;0.38;;;;;;;4.33;75.19;100266.59;6124726;23;20022;-81
2023/10/27 08:40:22;;;;;;;0.90;0.40;;;;;;;4.34;75.18;100272.63;6122695;23;20025;-81
2023/10/27 08:42:50;;;;;;;1.52;0.40;;;;;;;4.33;75.15;100265.72;6120159;23;20346;-77
2023/10/27 08:45:17;;;;;;;4.97;0.40;;;;;;;4.34;75.22;100267.44;6116506;23;20033;-77
2023/10/27 08:47:44;;;;;;;0.63;0.40;;;;;;;4.35;75.48;100274.31;6120504;23;20519;-76
2023/10/27 08:50:12;;;;;;;0.93;0.45;;;;;;;4.35;75.37;100272.59;6116974;23;20018;-77
2023/10/27 08:52:40;;;;;;;0.65;0.45;;;;;;;4.37;75.24;100277.78;6118434;23;20028;-74
2023/10/27 08:55:09;;;;;;;2.92;0.40;;;;;;;4.37;75.30;100273.47;6117919;23;20073;-74
2023/10/27 08:57:36;;;;;;;3.55;0.50;;;;;;;4.39;75.34;100276.06;6117103;23;20021;-76
2023/10/27 09:00:05;;;;;;;4.72;0.90;;;;;;;4.39;75.49;100276.91;6115492;23;20053;-74
2023/10/27 09:02:33;;;;;;;2.55;0.40;;;;;;;4.41;75.39;100284.66;6117174;23;20018;-75
2023/10/27 09:05:06;;;;;;;0.40;0.30;;;;;;;4.42;75.47;100283.81;6114840;23;20022;-75
2023/10/27 09:07:35;;;;;;;1.60;0.30;;;;;;;4.42;75.51;100281.22;6116491;23;20138;-74
2023/10/27 09:10:03;;;;;;;4.75;0.88;;;;;;;4.42;75.48;100287.25;6118150;23;20021;-75
2023/10/27 09:12:34;;;;;;;5.57;0.85;;;;;;;4.42;75.47;100282.09;6116932;23;20410;-77
2023/10/27 09:15:04;;;;;;;1.45;0.60;;;;;;;4.46;75.50;100285.53;6117241;23;20026;-75
2023/10/27 09:17:31;;;;;;;2.38;0.40;;;;;;;4.45;75.48;100282.06;6117067;23;20034;-75
2023/10/27 09:20:06;;;;;;;5.07;0.30;;;;;;;4.39;75.39;100263.13;6117673;23;20049;-74
2023/10/27 09:22:35;;;;;;;;;;;;;;;4.49;75.01;100276.03;6116611;23;20040;-74
2023/10/27 09:25:17;;;;;;;1.05;0.40;;;;;;;4.51;75.44;100278.63;6118391;23;19956;-76
2023/10/27 09:27:44;;;;;;;7.97;0.98;;;;;;;4.51;75.64;100283.78;6114162;23;20026;-75
2023/10/27 09:30:13;;;;;;;0.50;0.30;;;;;;;4.52;75.75;100280.31;6118577;23;20045;-75
2023/10/27 09:32:42;;;;;;;2.08;0.50;;;;;;;4.53;76.02;100295.00;6116968;23;20026;-74
2023/10/27 09:35:14;;;;;;;22.08;3.20;;;;;;;4.52;75.75;100282.91;6118189;23;20402;-76
2023/10/27 09:37:42;;;;;;;14.15;6.05;;;;;;;4.55;76.11;100287.22;6119870;23;20022;-76
2023/10/27 09:40:11;;;;;;;0.85;0.32;;;;;;;4.57;76.02;100290.69;6116504;23;20026;-77
2023/10/27 09:42:38;;;;;;;1.95;0.40;;;;;;;4.56;75.97;100289.81;6118493;23;20066;-78
2023/10/27 09:45:11;;;;;;;0.30;0.20;;;;;;;4.59;75.86;100286.38;6114661;23;20018;-77
2023/10/27 09:47:46;;;;;;;1.88;0.25;;;;;;;4.60;75.74;100290.66;6118451;23;20479;-78
2023/10/27 09:50:15;;;;;;;0.30;0.20;;;;;;;4.59;75.60;100279.47;6117415;23;20026;-77
2023/10/27 09:52:48;;;;;;;30.90;2.58;;;;;;;4.62;75.84;100281.19;6121033;23;20032;-78
2023/10/27 09:55:17;;;;;;;1.38;0.40;;;;;;;4.61;76.20;100279.44;6119478;23;20022;-77
2023/10/27 09:57:45;;;;;;;1.83;0.40;;;;;;;4.61;75.83;100270.00;6118620;23;20318;-75
2023/10/27 10:00:14;;;;;;;0.85;0.45;;;;;;;4.65;75.99;100276.88;6118083;23;20033;-75
2023/10/27 10:02:42;;;;;;;0.60;0.40;;;;;;;4.65;76.07;100276.00;6117564;23;20022;-73
2023/10/27 10:05:11;;;;;;;0.90;0.50;;;;;;;4.66;76.23;100275.13;6116885;23;20022;-74
2023/10/27 10:07:41;;;;;;;1.00;0.40;;;;;;;4.67;76.10;100277.72;6114651;23;20022;-73
2023/10/27 10:10:24;;;;;;;1.40;0.65;;;;;;;4.69;76.05;100269.94;6117233;23;20062;-73
2023/10/27 10:13:12;;;;;;;0.88;0.52;;;;;;;4.70;76.14;100280.31;6114411;23;20026;-73
2023/10/27 10:15:40;;;;;;;2.28;0.85;;;;;;;4.73;76.24;100277.72;6116906;23;20330;-75
2023/10/27 10:18:08;;;;;;;0.70;0.40;;;;;;;4.74;75.97;100279.41;6117076;23;20026;-73
2023/10/27 10:20:57;;;;;;;1.35;0.45;;;;;;;4.77;76.00;100272.53;6114505;23;20026;-74
2023/10/27 10:23:47;;;;;;;1.70;0.50;;;;;;;4.77;76.02;100277.69;6116973;23;20074;-73
2023/10/27 10:26:16;;;;;;;0.50;0.40;;;;;;;4.80;76.17;100278.53;6118631;23;20705;-73
2023/10/27 10:28:46;;;;;;;0.60;0.50;;;;;;;4.81;76.27;100279.41;6114499;23;20022;-73
2023/10/27 10:31:25;;;;;;;0.35;0.30;;;;;;;4.83;76.11;100275.09;6118167;23;20029;-74
2023/10/27 10:34:11;;;;;;;0.30;0.30;;;;;;;4.83;76.14;100278.53;6113293;23;20029;-72
2023/10/27 10:36:40;;;;;;;1.75;0.30;;;;;;;4.84;76.31;100281.97;6115819;23;20101;-73
2023/10/27 10:39:10;;;;;;;2.08;0.30;;;;;;;4.84;76.38;100275.09;6115772;23;20028;-72
2023/10/27 10:42:00;;;;;;;0.63;0.32;;;;;;;4.86;76.07;100272.50;6114729;23;20035;-73
2023/10/27 10:44:29;;;;;;;2.67;0.93;;;;;;;4.85;76.08;100275.94;6119447;23;20021;-72
2023/10/27 10:47:00;;;;;;;5.80;0.70;;;;;;;4.84;76.27;100267.34;6115252;23;20052;-73
2023/10/27 10:49:28;;;;;;;0.80;0.47;;;;;;;4.83;76.23;100275.94;6117436;23;20720;-73
2023/10/27 10:51:55;;;;;;;0.75;0.47;;;;;;;4.86;75.91;100277.66;6116031;23;20610;-73
2023/10/27 10:54:27;;;;;;;0.70;0.40;;;;;;;4.86;75.93;100277.66;6117956;23;20026;-73
2023/10/27 10:57:02;;;;;;;97.07;10.13;;;;;;;4.86;76.07;100272.50;6114230;23;20627;-71
2023/10/27 10:59:28;;;;;;;;;;;;;;;4.86;75.67;100270.75;6116005;23;20650;-71
2023/10/27 11:01:56;;;;;;;5.40;0.95;;;;;;;4.87;75.85;100279.41;6117599;23;19927;-73
2023/10/27 11:04:32;;;;;;;1.98;0.40;;;;;;;4.85;75.74;100273.38;6115267;23;20022;-73
2023/10/27 11:07:01;;;;;;;3.03;0.30;;;;;;;4.85;75.92;100273.38;6115995;23;20487;-72
2023/10/27 11:09:28;;;;;;;1.90;0.50;;;;;;;4.87;76.03;100269.06;6113831;23;20018;-73
2023/10/27 11:11:55;;;;;;;0.50;0.40;;;;;;;4.88;76.08;100273.34;6118228;23;20025;-70
2023/10/27 11:14:24;;;;;;;2.90;0.40;;;;;;;4.90;75.86;100269.91;6112232;23;20084;-70
2023/10/27 11:16:59;;;;;;;1.92;0.40;;;;;;;4.91;75.82;100281.09;6109289;23;20022;-70
2023/10/27 11:19:26;;;;;;;0.30;0.30;;;;;;;4.91;76.14;100271.59;6116587;23;20026;-70
2023/10/27 11:21:54;;;;;;;1.40;0.40;;;;;;;4.92;75.75;100267.28;6118211;23;20341;-70
2023/10/27 11:24:20;;;;;;;0.70;0.40;;;;;;;4.93;75.83;100269.03;6090329;23;20073;-70
2023/10/27 11:26:48;;;;;;;1.00;0.30;;;;;;;4.94;75.96;100273.31;6117946;23;20026;-71
2023/10/27 11:29:14;;;;;;;0.73;0.25;;;;;;;4.95;75.81;100265.56;6114499;23;20022;-71
2023/10/27 11:31:44;;;;;;;5.57;0.40;;;;;;;4.95;75.80;100267.28;6114176;23;20026;-71
2023/10/27 11:34:12;;;;;;;0.60;0.40;;;;;;;4.95;75.76;100272.44;6112222;23;20026;-71
2023/10/27 11:36:42;;;;;;;2.72;0.40;;;;;;;4.95;75.90;100262.09;6115892;23;20034;-71
2023/10/27 11:39:14;;;;;;;0.95;0.30;;;;;;;4.99;75.85;100268.16;6117165;23;20482;-72